Mapleton, North Dakota
Current Conditions -  °F | °C
As of 5:53 PM on Tuesday 25 Nov 2014 (Local Time) from KFAR Reporting Station
Overcast Overcast  
Wind Chill: 17°   Ceiling: 10000
Heat Index: 25°   Visibility: 10mi
Dew Point: 16°   Wind: 7mph
Humidity: 69%   Direction: 130°SE
Pressure: 29.91"   Gusts: NA
Location:  46.89°N, 97.05°W
Report Text: KFAR 252353Z 13006KT 10SM OVC100 M04/M09 A2991 RMK AO2 SLP145 T10391089 11028 21039 53003
Loading
Personal Weather Stations






























Interactive Weather Map New forecast layout! Learn more

10-Day Weather Forecast

Advertisements
Track Severe Weather on mobile